| time (UTC) | temp F | wind direction | speed knots | gust knots | rain 1hr in | rain 24hr in | rain mn in | humidity % | barometer mb |
| 20260508110005 | 41 | 338 | 0.0 | 1.7 | 0.00 | 0.01 | 0.00 | 92 | 972.6 |
| 20260508104504 | 40 | 29 | 0.0 | 1.7 | 0.00 | 0.01 | 0.00 | 92 | 972.4 |
| 20260508103104 | 40 | 342 | 0.0 | 1.7 | 0.00 | 0.01 | 0.00 | 90 | 972.3 |
| 20260508101557 | 40 | 360 | 0.0 | 1.7 | 0.00 | 0.01 | 0.00 | 89 | 972.0 |
| 20260508100053 | 41 | 355 | 0.0 | 3.5 | 0.00 | 0.01 | 0.00 | 88 | 971.7 |
| 20260508094550 | 42 | 360 | 0.9 | 1.7 | 0.00 | 0.01 | 0.00 | 85 | 971.5 |
| 20260508093049 | 44 | 360 | 0.0 | 3.5 | 0.00 | 0.01 | 0.00 | 81 | 971.4 |
| 20260508091552 | 45 | 360 | 0.9 | 3.5 | 0.00 | 0.01 | 0.00 | 78 | 971.2 |
| 20260508090041 | 47 | 360 | 0.0 | 3.5 | 0.00 | 0.01 | 0.00 | 76 | 971.1 |
| 20260508084539 | 50 | 5 | 1.7 | 7.0 | 0.00 | 0.01 | 0.00 | 67 | 971.1 |
| 20260508083045 | 47 | 360 | 1.7 | 5.2 | 0.00 | 0.01 | 0.00 | 70 | 970.9 |
| 20260508081534 | 47 | 360 | 0.0 | 1.7 | 0.00 | 0.01 | 0.00 | 75 | 970.8 |
| 20260508080052 | 47 | 360 | 0.9 | 2.6 | 0.00 | 0.01 | 0.00 | 75 | 970.6 |
| 20260508074534 | 47 | 360 | 1.7 | 4.3 | 0.00 | 0.02 | 0.00 | 75 | 970.6 |
| 20260508073031 | 48 | 360 | 0.0 | 2.6 | 0.00 | 0.02 | 0.00 | 77 | 970.6 |
| 20260508071531 | 49 | 304 | 0.0 | 1.7 | 0.00 | 0.02 | 0.00 | 73 | 970.6 |
| 20260508070129 | 49 | 40 | 2.6 | 4.3 | 0.00 | 0.02 | 0.00 | 75 | 970.5 |
| 20260508064540 | 50 | 298 | 0.0 | 2.6 | 0.00 | 0.02 | 0.00 | 75 | 970.5 |
| 20260508063029 | 51 | 355 | 1.7 | 3.5 | 0.00 | 0.02 | 0.00 | 71 | 970.5 |
| 20260508061527 | 51 | 32 | 0.9 | 3.5 | 0.00 | 0.02 | 0.00 | 73 | 970.5 |
| 20260508060022 | 50 | 59 | 0.0 | 2.6 | 0.00 | 0.02 | 0.00 | 75 | 970.6 |
| 20260508054533 | 49 | 360 | 0.0 | 2.6 | 0.00 | 0.02 | 0.00 | 78 | 970.6 |
| 20260508053019 | 49 | 360 | 0.9 | 4.3 | 0.00 | 0.02 | 0.00 | 81 | 970.5 |
| 20260508051515 | 47 | 360 | 0.0 | 1.7 | 0.00 | 0.02 | 0.00 | 86 | 970.3 |
| 20260508050013 | 48 | 360 | 0.0 | 2.6 | 0.00 | 0.02 | 0.00 | 86 | 970.3 |
| 20260508044512 | 48 | 360 | 0.9 | 4.3 | 0.00 | 0.04 | 0.00 | 86 | 970.2 |
| 20260508043009 | 47 | 360 | 0.0 | 2.6 | 0.00 | 0.04 | 0.00 | 87 | 970.0 |
| 20260508041506 | 47 | 360 | 0.0 | 1.7 | 0.00 | 0.04 | 0.00 | 89 | 969.7 |
| 20260508040007 | 47 | 360 | 0.0 | 1.7 | 0.00 | 0.04 | 0.00 | 87 | 969.8 |
| 20260508034601 | 47 | 360 | 0.0 | 1.7 | 0.00 | 0.06 | 0.04 | 88 | 969.7 |
| 20260508034502 | 47 | 360 | 0.0 | 1.7 | 0.00 | 0.06 | 0.04 | 89 | 969.6 |
| 20260508033100 | 47 | 360 | 0.0 | 1.7 | 0.00 | 0.06 | 0.04 | 88 | 969.6 |
| 20260508031557 | 48 | 360 | 0.9 | 2.6 | 0.00 | 0.06 | 0.04 | 89 | 969.3 |
| 20260508030057 | 48 | 360 | 1.7 | 2.6 | 0.00 | 0.06 | 0.04 | 87 | 969.3 |
| 20260508024553 | 49 | 360 | 0.0 | 2.6 | 0.00 | 0.09 | 0.04 | 86 | 969.3 |
| 20260508023049 | 50 | 360 | 0.0 | 2.6 | 0.00 | 0.09 | 0.04 | 84 | 969.1 |
| 20260508021546 | 51 | 360 | 0.0 | 2.6 | 0.00 | 0.09 | 0.04 | 82 | 968.9 |
| 20260508020043 | 52 | 17 | 0.0 | 1.7 | 0.00 | 0.09 | 0.04 | 79 | 968.9 |
| 20260508014540 | 53 | 12 | 0.9 | 3.5 | 0.00 | 0.09 | 0.04 | 77 | 968.5 |
| 20260508013037 | 55 | 321 | 0.9 | 2.6 | 0.00 | 0.09 | 0.04 | 71 | 968.2 |
| 20260508011534 | 56 | 311 | 2.6 | 8.7 | 0.00 | 0.09 | 0.04 | 69 | 967.9 |
| 20260508010032 | 57 | 355 | 2.6 | 8.7 | 0.00 | 0.09 | 0.04 | 67 | 967.7 |
| 20260508004533 | 57 | 298 | 2.6 | 14.8 | 0.00 | 0.09 | 0.04 | 66 | 967.7 |
| 20260508003028 | 57 | 293 | 2.6 | 9.6 | 0.00 | 0.09 | 0.04 | 67 | 967.6 |
| 20260508001527 | 58 | 339 | 1.7 | 7.8 | 0.00 | 0.09 | 0.04 | 67 | 967.7 |
| 20260508000029 | 59 | 338 | 2.6 | 11.3 | 0.00 | 0.09 | 0.04 | 66 | 967.6 |
| 20260507234540 | 59 | 12 | 1.7 | 15.6 | 0.00 | 0.09 | 0.04 | 66 | 967.6 |
| 20260507233028 | 60 | 300 | 3.5 | 16.5 | 0.00 | 0.09 | 0.04 | 66 | 967.6 |
| 20260507231525 | 60 | 292 | 5.2 | 12.2 | 0.00 | 0.09 | 0.04 | 66 | 967.4 |
| 20260507230023 | 60 | 281 | 2.6 | 12.2 | 0.00 | 0.09 | 0.04 | 68 | 967.2 |
| 20260507224522 | 61 | 314 | 4.3 | 11.3 | 0.00 | 0.09 | 0.04 | 68 | 967.0 |
| 20260507223022 | 60 | 298 | 2.6 | 13.0 | 0.00 | 0.09 | 0.04 | 69 | 966.9 |
| 20260507221530 | 61 | 304 | 2.6 | 12.2 | 0.00 | 0.09 | 0.04 | 69 | 966.6 |
| 20260507220022 | 61 | 355 | 5.2 | 13.9 | 0.00 | 0.09 | 0.04 | 69 | 966.3 |
| 20260507214520 | 61 | 5 | 6.1 | 19.1 | 0.00 | 0.09 | 0.04 | 70 | 966.4 |
| 20260507213026 | 63 | 309 | 4.3 | 16.5 | 0.00 | 0.09 | 0.04 | 71 | 966.1 |
| 20260507211518 | 63 | 36 | 3.5 | 10.4 | 0.00 | 0.09 | 0.04 | 72 | 965.6 |
| 20260507210024 | 64 | 355 | 4.3 | 9.6 | 0.00 | 0.09 | 0.04 | 73 | 965.5 |
| 20260507204514 | 65 | 330 | 2.6 | 7.0 | 0.00 | 0.09 | 0.04 | 73 | 965.2 |
| 20260507203016 | 66 | 9 | 2.6 | 9.6 | 0.00 | 0.09 | 0.04 | 72 | 965.3 |
| 20260507201513 | 65 | 307 | 2.6 | 9.6 | 0.00 | 0.09 | 0.04 | 73 | 965.1 |
| 20260507200011 | 65 | 29 | 3.5 | 9.6 | 0.00 | 0.09 | 0.04 | 74 | 965.3 |
| 20260507194520 | 63 | 13 | 2.6 | 7.8 | 0.00 | 0.09 | 0.04 | 80 | 965.4 |
| 20260507193008 | 62 | 63 | 2.6 | 7.0 | 0.00 | 0.09 | 0.04 | 80 | 965.7 |
| 20260507191505 | 62 | 131 | 1.7 | 7.0 | 0.00 | 0.09 | 0.04 | 82 | 965.8 |
| 20260507190116 | 60 | 71 | 3.5 | 8.7 | 0.00 | 0.09 | 0.04 | 85 | 965.9 |
| 20260507184504 | 59 | 117 | 4.3 | 7.8 | 0.00 | 0.09 | 0.04 | 87 | 966.2 |
| 20260507183002 | 57 | 16 | 0.9 | 5.2 | 0.00 | 0.09 | 0.04 | 88 | 966.3 |
| 20260507181501 | 57 | 72 | 3.5 | 8.7 | 0.00 | 0.09 | 0.04 | 87 | 966.4 |
| 20260507180106 | 58 | 163 | 1.7 | 8.7 | 0.00 | 0.09 | 0.04 | 86 | 966.4 |
| 20260507174604 | 59 | 15 | 1.7 | 7.0 | 0.00 | 0.09 | 0.04 | 86 | 966.1 |
| 20260507173108 | 59 | 19 | 2.6 | 7.8 | 0.00 | 0.09 | 0.04 | 85 | 966.1 |
| 20260507171554 | 60 | 346 | 2.6 | 7.8 | 0.00 | 0.09 | 0.04 | 84 | 966.3 |
| 20260507170056 | 62 | 254 | 2.6 | 6.1 | 0.00 | 0.09 | 0.04 | 84 | 966.1 |
| 20260507164624 | 62 | 341 | 2.6 | 7.8 | 0.00 | 0.09 | 0.04 | 84 | 966.1 |
| 20260507163055 | 62 | 139 | 2.6 | 7.8 | 0.00 | 0.09 | 0.04 | 84 | 965.9 |
| 20260507161556 | 62 | 327 | 1.7 | 7.0 | 0.00 | 0.09 | 0.04 | 85 | 966.0 |
| 20260507160049 | 64 | 350 | 3.5 | 8.7 | 0.00 | 0.09 | 0.04 | 84 | 966.1 |
| 20260507154546 | 63 | 335 | 2.6 | 6.1 | 0.00 | 0.09 | 0.04 | 86 | 966.0 |
| 20260507153046 | 63 | 68 | 1.7 | 7.8 | 0.00 | 0.09 | 0.04 | 88 | 966.1 |
| 20260507151546 | 63 | 332 | 1.7 | 5.2 | 0.00 | 0.09 | 0.04 | 87 | 966.1 |
| 20260507150046 | 62 | 104 | 1.7 | 6.1 | 0.00 | 0.09 | 0.04 | 88 | 966.1 |
| 20260507144541 | 62 | 45 | 1.7 | 3.5 | 0.00 | 0.09 | 0.04 | 90 | 966.1 |
| 20260507143045 | 62 | 91 | 0.0 | 4.3 | 0.00 | 0.09 | 0.04 | 93 | 966.0 |
| 20260507141539 | 61 | 44 | 1.7 | 5.2 | 0.00 | 0.09 | 0.04 | 95 | 966.0 |
| 20260507140042 | 61 | 97 | 0.0 | 1.7 | 0.00 | 0.09 | 0.04 | 98 | 966.0 |
| 20260507134539 | 61 | 98 | 1.7 | 2.6 | 0.00 | 0.09 | 0.04 | 98 | 965.9 |
| 20260507133039 | 60 | 94 | 0.9 | 3.5 | 0.00 | 0.09 | 0.04 | 99 | 965.8 |
| 20260507131539 | 60 | 76 | 0.9 | 2.6 | 0.01 | 0.09 | 0.04 | 99 | 966.1 |
| 20260507130040 | 60 | 42 | 0.0 | 4.3 | 0.01 | 0.09 | 0.04 | 99 | 966.4 |
| 20260507124538 | 60 | 39 | 0.0 | 7.0 | 0.01 | 0.09 | 0.04 | 99 | 966.8 |
| 20260507123031 | 62 | 298 | 0.9 | 2.6 | 0.01 | 0.09 | 0.04 | 100 | 966.8 |
| 20260507121530 | 62 | 285 | 0.0 | 2.6 | 0.00 | 0.08 | 0.03 | 100 | 966.9 |
| 20260507120029 | 62 | 284 | 0.0 | 1.7 | 0.00 | 0.08 | 0.03 | 100 | 967.1 |
| 20260507114546 | 62 | 310 | 0.0 | 0.9 | 0.00 | 0.08 | 0.03 | 100 | 966.5 |
| 20260507113050 | 62 | 266 | 0.0 | 0.9 | 0.00 | 0.08 | 0.03 | 100 | 966.1 |
| 20260507111536 | 61 | 276 | 0.9 | 2.6 | 0.00 | 0.08 | 0.03 | 100 | 966.3 |